sensor_id;sensor_type;location;lat;lon;timestamp;P1;durP1;ratioP1;P2;durP2;ratioP2
9422;SDS011;65863;49.506;10.400;2023-09-12T00:02:01;13.70;;;7.37;;
9422;SDS011;65863;49.506;10.400;2023-09-12T00:04:45;13.30;;;7.90;;
9422;SDS011;65863;49.506;10.400;2023-09-12T00:07:28;9.77;;;7.87;;
9422;SDS011;65863;49.506;10.400;2023-09-12T00:10:12;9.20;;;7.50;;
9422;SDS011;65863;49.506;10.400;2023-09-12T00:12:56;10.30;;;8.03;;
9422;SDS011;65863;49.506;10.400;2023-09-12T00:15:42;9.57;;;7.97;;
9422;SDS011;65863;49.506;10.400;2023-09-12T00:18:26;16.27;;;7.23;;
9422;SDS011;65863;49.506;10.400;2023-09-12T00:21:10;9.93;;;7.27;;
9422;SDS011;65863;49.506;10.400;2023-09-12T00:23:54;9.40;;;7.50;;
9422;SDS011;65863;49.506;10.400;2023-09-12T00:26:38;11.53;;;7.80;;
9422;SDS011;65863;49.506;10.400;2023-09-12T00:29:22;12.10;;;6.90;;
9422;SDS011;65863;49.506;10.400;2023-09-12T00:32:06;9.87;;;7.40;;
9422;SDS011;65863;49.506;10.400;2023-09-12T00:34:50;8.27;;;6.80;;
9422;SDS011;65863;49.506;10.400;2023-09-12T00:37:34;9.47;;;6.97;;
9422;SDS011;65863;49.506;10.400;2023-09-12T00:40:18;14.20;;;7.07;;
9422;SDS011;65863;49.506;10.400;2023-09-12T00:43:02;11.67;;;6.83;;
9422;SDS011;65863;49.506;10.400;2023-09-12T00:45:46;12.33;;;6.67;;
9422;SDS011;65863;49.506;10.400;2023-09-12T00:48:30;8.37;;;7.50;;
9422;SDS011;65863;49.506;10.400;2023-09-12T00:51:16;9.37;;;7.90;;
9422;SDS011;65863;49.506;10.400;2023-09-12T00:54:02;10.07;;;7.57;;
9422;SDS011;65863;49.506;10.400;2023-09-12T00:56:46;10.97;;;7.60;;
9422;SDS011;65863;49.506;10.400;2023-09-12T00:59:29;7.73;;;6.90;;
9422;SDS011;65863;49.506;10.400;2023-09-12T01:02:14;12.27;;;7.60;;
9422;SDS011;65863;49.506;10.400;2023-09-12T01:04:59;9.93;;;7.43;;
9422;SDS011;65863;49.506;10.400;2023-09-12T01:07:43;9.33;;;7.30;;
9422;SDS011;65863;49.506;10.400;2023-09-12T01:10:27;9.43;;;7.10;;
9422;SDS011;65863;49.506;10.400;2023-09-12T01:13:12;8.37;;;7.50;;
9422;SDS011;65863;49.506;10.400;2023-09-12T01:15:58;10.33;;;8.10;;
9422;SDS011;65863;49.506;10.400;2023-09-12T01:18:42;8.70;;;7.20;;
9422;SDS011;65863;49.506;10.400;2023-09-12T01:27:56;17.97;;;8.20;;
9422;SDS011;65863;49.506;10.400;2023-09-12T01:30:45;10.97;;;7.30;;
9422;SDS011;65863;49.506;10.400;2023-09-12T01:33:32;10.23;;;7.97;;
9422;SDS011;65863;49.506;10.400;2023-09-12T01:36:16;10.30;;;8.23;;
9422;SDS011;65863;49.506;10.400;2023-09-12T01:39:00;9.83;;;7.67;;
9422;SDS011;65863;49.506;10.400;2023-09-12T01:41:45;12.30;;;8.47;;
9422;SDS011;65863;49.506;10.400;2023-09-12T01:44:31;10.40;;;8.27;;
9422;SDS011;65863;49.506;10.400;2023-09-12T01:47:18;8.30;;;7.40;;
9422;SDS011;65863;49.506;10.400;2023-09-12T01:50:04;13.53;;;8.57;;
9422;SDS011;65863;49.506;10.400;2023-09-12T01:52:52;12.23;;;8.07;;
9422;SDS011;65863;49.506;10.400;2023-09-12T01:55:37;8.87;;;7.97;;
9422;SDS011;65863;49.506;10.400;2023-09-12T01:58:21;10.50;;;8.20;;
9422;SDS011;65863;49.506;10.400;2023-09-12T02:01:05;9.60;;;7.17;;
9422;SDS011;65863;49.506;10.400;2023-09-12T02:03:49;9.53;;;7.60;;
9422;SDS011;65863;49.506;10.400;2023-09-12T02:06:33;8.40;;;7.60;;
9422;SDS011;65863;49.506;10.400;2023-09-12T02:09:20;10.20;;;7.33;;
9422;SDS011;65863;49.506;10.400;2023-09-12T02:12:05;8.80;;;7.43;;
9422;SDS011;65863;49.506;10.400;2023-09-12T02:14:50;10.43;;;8.33;;
9422;SDS011;65863;49.506;10.400;2023-09-12T02:17:34;9.20;;;7.90;;
9422;SDS011;65863;49.506;10.400;2023-09-12T02:20:18;7.87;;;7.07;;
9422;SDS011;65863;49.506;10.400;2023-09-12T02:23:03;9.93;;;7.33;;
9422;SDS011;65863;49.506;10.400;2023-09-12T02:25:47;10.77;;;7.83;;
9422;SDS011;65863;49.506;10.400;2023-09-12T02:28:31;8.93;;;7.50;;
9422;SDS011;65863;49.506;10.400;2023-09-12T02:31:15;8.07;;;7.17;;
9422;SDS011;65863;49.506;10.400;2023-09-12T02:33:59;8.63;;;6.97;;
9422;SDS011;65863;49.506;10.400;2023-09-12T02:36:43;9.73;;;8.20;;
9422;SDS011;65863;49.506;10.400;2023-09-12T02:39:27;9.07;;;7.70;;
9422;SDS011;65863;49.506;10.400;2023-09-12T02:42:12;10.03;;;7.20;;
9422;SDS011;65863;49.506;10.400;2023-09-12T02:44:56;8.53;;;7.67;;
9422;SDS011;65863;49.506;10.400;2023-09-12T02:47:40;8.40;;;7.47;;
9422;SDS011;65863;49.506;10.400;2023-09-12T02:50:24;9.67;;;7.80;;
9422;SDS011;65863;49.506;10.400;2023-09-12T02:53:08;7.70;;;6.80;;
9422;SDS011;65863;49.506;10.400;2023-09-12T02:55:52;8.37;;;6.87;;
9422;SDS011;65863;49.506;10.400;2023-09-12T02:58:38;9.60;;;7.43;;
9422;SDS011;65863;49.506;10.400;2023-09-12T03:01:22;10.40;;;7.90;;
9422;SDS011;65863;49.506;10.400;2023-09-12T03:04:06;10.80;;;8.07;;
9422;SDS011;65863;49.506;10.400;2023-09-12T03:06:50;14.77;;;9.83;;
9422;SDS011;65863;49.506;10.400;2023-09-12T03:09:34;8.83;;;7.67;;
9422;SDS011;65863;49.506;10.400;2023-09-12T03:12:19;10.60;;;8.20;;
9422;SDS011;65863;49.506;10.400;2023-09-12T03:15:03;13.37;;;8.83;;
9422;SDS011;65863;49.506;10.400;2023-09-12T03:17:47;11.13;;;9.37;;
9422;SDS011;65863;49.506;10.400;2023-09-12T03:20:31;10.30;;;8.67;;
9422;SDS011;65863;49.506;10.400;2023-09-12T03:23:16;10.33;;;9.07;;
9422;SDS011;65863;49.506;10.400;2023-09-12T03:26:01;10.90;;;8.67;;
9422;SDS011;65863;49.506;10.400;2023-09-12T03:28:47;9.80;;;8.23;;
9422;SDS011;65863;49.506;10.400;2023-09-12T03:31:33;11.00;;;8.97;;
9422;SDS011;65863;49.506;10.400;2023-09-12T03:34:19;8.87;;;7.10;;
9422;SDS011;65863;49.506;10.400;2023-09-12T03:37:03;8.83;;;8.00;;
9422;SDS011;65863;49.506;10.400;2023-09-12T03:39:47;15.73;;;8.20;;
9422;SDS011;65863;49.506;10.400;2023-09-12T03:42:31;14.43;;;8.40;;
9422;SDS011;65863;49.506;10.400;2023-09-12T03:45:17;12.17;;;8.17;;
9422;SDS011;65863;49.506;10.400;2023-09-12T03:48:01;10.70;;;7.63;;
9422;SDS011;65863;49.506;10.400;2023-09-12T03:50:47;11.67;;;8.27;;
9422;SDS011;65863;49.506;10.400;2023-09-12T03:53:31;8.80;;;7.90;;
9422;SDS011;65863;49.506;10.400;2023-09-12T03:56:15;10.67;;;7.73;;
9422;SDS011;65863;49.506;10.400;2023-09-12T03:59:00;10.10;;;8.70;;
9422;SDS011;65863;49.506;10.400;2023-09-12T04:01:44;12.90;;;8.07;;
9422;SDS011;65863;49.506;10.400;2023-09-12T04:04:28;11.70;;;8.23;;
9422;SDS011;65863;49.506;10.400;2023-09-12T04:07:12;8.70;;;7.80;;
9422;SDS011;65863;49.506;10.400;2023-09-12T04:09:56;9.30;;;7.63;;
9422;SDS011;65863;49.506;10.400;2023-09-12T04:12:40;9.07;;;7.63;;
9422;SDS011;65863;49.506;10.400;2023-09-12T04:15:24;11.60;;;8.33;;
9422;SDS011;65863;49.506;10.400;2023-09-12T04:18:08;10.87;;;8.10;;
9422;SDS011;65863;49.506;10.400;2023-09-12T04:20:53;11.83;;;8.93;;
9422;SDS011;65863;49.506;10.400;2023-09-12T04:23:39;10.03;;;7.77;;
9422;SDS011;65863;49.506;10.400;2023-09-12T04:26:23;9.43;;;8.07;;
9422;SDS011;65863;49.506;10.400;2023-09-12T04:29:07;9.20;;;7.60;;
9422;SDS011;65863;49.506;10.400;2023-09-12T04:31:51;12.50;;;7.47;;
9422;SDS011;65863;49.506;10.400;2023-09-12T04:34:42;10.57;;;8.40;;
9422;SDS011;65863;49.506;10.400;2023-09-12T04:37:26;8.83;;;8.00;;
9422;SDS011;65863;49.506;10.400;2023-09-12T04:40:10;10.10;;;8.33;;
9422;SDS011;65863;49.506;10.400;2023-09-12T04:42:55;9.17;;;8.00;;
9422;SDS011;65863;49.506;10.400;2023-09-12T04:45:39;10.73;;;7.83;;
9422;SDS011;65863;49.506;10.400;2023-09-12T04:48:23;9.47;;;8.03;;
9422;SDS011;65863;49.506;10.400;2023-09-12T04:51:07;12.00;;;7.50;;
9422;SDS011;65863;49.506;10.400;2023-09-12T04:53:51;12.90;;;7.80;;
9422;SDS011;65863;49.506;10.400;2023-09-12T04:56:35;14.70;;;9.53;;
9422;SDS011;65863;49.506;10.400;2023-09-12T04:59:19;15.17;;;9.87;;
9422;SDS011;65863;49.506;10.400;2023-09-12T05:02:03;12.33;;;9.70;;
9422;SDS011;65863;49.506;10.400;2023-09-12T05:04:47;12.17;;;9.77;;
9422;SDS011;65863;49.506;10.400;2023-09-12T05:07:32;11.63;;;9.63;;
9422;SDS011;65863;49.506;10.400;2023-09-12T05:10:16;10.00;;;9.00;;
9422;SDS011;65863;49.506;10.400;2023-09-12T05:13:02;12.30;;;8.07;;
9422;SDS011;65863;49.506;10.400;2023-09-12T05:15:47;9.83;;;7.43;;
9422;SDS011;65863;49.506;10.400;2023-09-12T05:18:31;15.17;;;9.17;;
9422;SDS011;65863;49.506;10.400;2023-09-12T05:21:15;12.77;;;8.73;;
9422;SDS011;65863;49.506;10.400;2023-09-12T05:24:01;12.70;;;7.77;;
9422;SDS011;65863;49.506;10.400;2023-09-12T05:26:44;8.27;;;7.47;;
9422;SDS011;65863;49.506;10.400;2023-09-12T05:29:29;9.90;;;7.30;;
9422;SDS011;65863;49.506;10.400;2023-09-12T05:32:13;12.23;;;7.20;;
9422;SDS011;65863;49.506;10.400;2023-09-12T05:34:59;8.30;;;7.23;;
9422;SDS011;65863;49.506;10.400;2023-09-12T05:37:44;11.43;;;6.87;;
9422;SDS011;65863;49.506;10.400;2023-09-12T05:40:28;8.80;;;6.73;;
9422;SDS011;65863;49.506;10.400;2023-09-12T05:43:12;10.67;;;6.07;;
9422;SDS011;65863;49.506;10.400;2023-09-12T05:45:56;7.30;;;6.60;;
9422;SDS011;65863;49.506;10.400;2023-09-12T05:48:42;10.90;;;6.57;;
9422;SDS011;65863;49.506;10.400;2023-09-12T05:51:26;8.40;;;6.40;;
9422;SDS011;65863;49.506;10.400;2023-09-12T05:54:11;9.23;;;6.70;;
9422;SDS011;65863;49.506;10.400;2023-09-12T05:56:57;6.77;;;5.87;;
9422;SDS011;65863;49.506;10.400;2023-09-12T05:59:41;8.87;;;6.67;;
9422;SDS011;65863;49.506;10.400;2023-09-12T06:02:26;9.60;;;5.77;;
9422;SDS011;65863;49.506;10.400;2023-09-12T06:05:11;7.80;;;6.27;;
9422;SDS011;65863;49.506;10.400;2023-09-12T06:07:55;7.10;;;5.90;;
9422;SDS011;65863;49.506;10.400;2023-09-12T06:10:39;10.23;;;6.57;;
9422;SDS011;65863;49.506;10.400;2023-09-12T06:13:23;8.50;;;6.27;;
9422;SDS011;65863;49.506;10.400;2023-09-12T06:16:08;8.47;;;7.57;;
9422;SDS011;65863;49.506;10.400;2023-09-12T06:18:52;13.03;;;8.37;;
9422;SDS011;65863;49.506;10.400;2023-09-12T06:21:37;9.70;;;7.40;;
9422;SDS011;65863;49.506;10.400;2023-09-12T06:24:21;12.10;;;7.30;;
9422;SDS011;65863;49.506;10.400;2023-09-12T06:27:06;14.07;;;8.00;;
9422;SDS011;65863;49.506;10.400;2023-09-12T06:29:50;12.03;;;8.20;;
9422;SDS011;65863;49.506;10.400;2023-09-12T06:32:34;9.60;;;7.80;;
9422;SDS011;65863;49.506;10.400;2023-09-12T06:35:18;8.40;;;7.53;;
9422;SDS011;65863;49.506;10.400;2023-09-12T06:38:02;11.03;;;8.23;;
9422;SDS011;65863;49.506;10.400;2023-09-12T06:40:47;12.17;;;9.17;;
9422;SDS011;65863;49.506;10.400;2023-09-12T06:43:31;13.73;;;8.10;;
9422;SDS011;65863;49.506;10.400;2023-09-12T06:46:15;14.37;;;8.93;;
9422;SDS011;65863;49.506;10.400;2023-09-12T06:49:02;10.67;;;8.70;;
9422;SDS011;65863;49.506;10.400;2023-09-12T06:51:46;13.87;;;9.40;;
9422;SDS011;65863;49.506;10.400;2023-09-12T06:54:32;12.73;;;9.13;;
9422;SDS011;65863;49.506;10.400;2023-09-12T06:57:16;11.77;;;9.73;;
9422;SDS011;65863;49.506;10.400;2023-09-12T07:00:00;12.13;;;9.10;;
9422;SDS011;65863;49.506;10.400;2023-09-12T07:02:44;12.30;;;9.27;;
9422;SDS011;65863;49.506;10.400;2023-09-12T07:05:28;13.10;;;9.47;;
9422;SDS011;65863;49.506;10.400;2023-09-12T07:08:12;12.20;;;9.43;;
9422;SDS011;65863;49.506;10.400;2023-09-12T07:10:57;10.67;;;9.67;;
9422;SDS011;65863;49.506;10.400;2023-09-12T07:13:42;11.23;;;9.40;;
9422;SDS011;65863;49.506;10.400;2023-09-12T07:16:26;13.93;;;10.17;;
9422;SDS011;65863;49.506;10.400;2023-09-12T07:19:10;12.53;;;10.93;;
9422;SDS011;65863;49.506;10.400;2023-09-12T07:21:54;11.97;;;10.60;;
9422;SDS011;65863;49.506;10.400;2023-09-12T07:24:39;13.60;;;10.63;;
9422;SDS011;65863;49.506;10.400;2023-09-12T07:27:23;13.53;;;10.13;;
9422;SDS011;65863;49.506;10.400;2023-09-12T07:30:07;12.97;;;10.10;;
9422;SDS011;65863;49.506;10.400;2023-09-12T07:32:51;12.93;;;9.87;;
9422;SDS011;65863;49.506;10.400;2023-09-12T07:35:35;16.57;;;10.10;;
9422;SDS011;65863;49.506;10.400;2023-09-12T07:38:20;13.10;;;10.10;;
9422;SDS011;65863;49.506;10.400;2023-09-12T07:41:05;20.10;;;10.90;;
9422;SDS011;65863;49.506;10.400;2023-09-12T07:43:49;22.27;;;11.97;;
9422;SDS011;65863;49.506;10.400;2023-09-12T07:46:33;12.20;;;10.90;;
9422;SDS011;65863;49.506;10.400;2023-09-12T07:49:17;21.67;;;10.90;;
9422;SDS011;65863;49.506;10.400;2023-09-12T07:52:01;14.13;;;10.93;;
9422;SDS011;65863;49.506;10.400;2023-09-12T07:54:45;17.40;;;11.00;;
9422;SDS011;65863;49.506;10.400;2023-09-12T07:57:29;14.43;;;10.23;;
9422;SDS011;65863;49.506;10.400;2023-09-12T08:00:13;12.00;;;9.97;;
9422;SDS011;65863;49.506;10.400;2023-09-12T08:02:57;14.63;;;10.53;;
9422;SDS011;65863;49.506;10.400;2023-09-12T08:05:41;11.07;;;9.93;;
9422;SDS011;65863;49.506;10.400;2023-09-12T08:08:25;14.63;;;11.07;;
9422;SDS011;65863;49.506;10.400;2023-09-12T08:11:09;12.27;;;10.47;;
9422;SDS011;65863;49.506;10.400;2023-09-12T08:13:53;12.57;;;9.73;;
9422;SDS011;65863;49.506;10.400;2023-09-12T08:16:36;12.23;;;10.40;;
9422;SDS011;65863;49.506;10.400;2023-09-12T08:19:21;18.93;;;9.77;;
9422;SDS011;65863;49.506;10.400;2023-09-12T08:22:05;11.37;;;9.73;;
9422;SDS011;65863;49.506;10.400;2023-09-12T08:24:51;11.37;;;9.83;;
9422;SDS011;65863;49.506;10.400;2023-09-12T08:27:35;18.37;;;10.80;;
9422;SDS011;65863;49.506;10.400;2023-09-12T08:30:19;13.17;;;10.13;;
9422;SDS011;65863;49.506;10.400;2023-09-12T08:33:03;11.20;;;9.77;;
9422;SDS011;65863;49.506;10.400;2023-09-12T08:35:48;10.63;;;9.60;;
9422;SDS011;65863;49.506;10.400;2023-09-12T08:38:33;14.63;;;10.03;;
9422;SDS011;65863;49.506;10.400;2023-09-12T08:41:17;13.47;;;9.90;;
9422;SDS011;65863;49.506;10.400;2023-09-12T08:44:01;14.70;;;10.73;;
9422;SDS011;65863;49.506;10.400;2023-09-12T08:46:45;13.00;;;10.40;;
9422;SDS011;65863;49.506;10.400;2023-09-12T08:49:30;13.60;;;10.87;;
9422;SDS011;65863;49.506;10.400;2023-09-12T08:52:17;14.73;;;10.43;;
9422;SDS011;65863;49.506;10.400;2023-09-12T08:55:01;12.60;;;9.90;;
9422;SDS011;65863;49.506;10.400;2023-09-12T08:57:46;16.03;;;10.57;;
9422;SDS011;65863;49.506;10.400;2023-09-12T09:00:34;11.40;;;9.03;;
9422;SDS011;65863;49.506;10.400;2023-09-12T09:03:19;13.13;;;9.43;;
9422;SDS011;65863;49.506;10.400;2023-09-12T09:06:05;12.67;;;8.57;;
9422;SDS011;65863;49.506;10.400;2023-09-12T09:08:50;11.53;;;8.57;;
9422;SDS011;65863;49.506;10.400;2023-09-12T09:11:37;11.27;;;8.20;;
9422;SDS011;65863;49.506;10.400;2023-09-12T09:14:21;13.67;;;8.40;;
9422;SDS011;65863;49.506;10.400;2023-09-12T09:17:05;13.30;;;7.87;;
9422;SDS011;65863;49.506;10.400;2023-09-12T09:19:49;9.10;;;7.57;;
9422;SDS011;65863;49.506;10.400;2023-09-12T09:22:33;14.20;;;8.03;;
9422;SDS011;65863;49.506;10.400;2023-09-12T09:25:17;9.07;;;6.50;;
9422;SDS011;65863;49.506;10.400;2023-09-12T09:28:02;9.97;;;7.27;;
9422;SDS011;65863;49.506;10.400;2023-09-12T09:30:48;10.27;;;7.50;;
9422;SDS011;65863;49.506;10.400;2023-09-12T09:33:35;12.10;;;7.63;;
9422;SDS011;65863;49.506;10.400;2023-09-12T09:36:19;12.20;;;7.20;;
9422;SDS011;65863;49.506;10.400;2023-09-12T09:39:04;10.77;;;6.40;;
9422;SDS011;65863;49.506;10.400;2023-09-12T09:41:49;8.67;;;7.30;;
9422;SDS011;65863;49.506;10.400;2023-09-12T09:44:34;10.13;;;6.10;;
9422;SDS011;65863;49.506;10.400;2023-09-12T09:47:19;8.37;;;6.23;;
9422;SDS011;65863;49.506;10.400;2023-09-12T09:50:03;8.73;;;6.43;;
9422;SDS011;65863;49.506;10.400;2023-09-12T09:52:52;9.77;;;6.97;;
9422;SDS011;65863;49.506;10.400;2023-09-12T09:55:38;8.70;;;6.50;;
9422;SDS011;65863;49.506;10.400;2023-09-12T09:58:23;12.13;;;6.50;;
9422;SDS011;65863;49.506;10.400;2023-09-12T10:01:07;9.77;;;6.00;;
9422;SDS011;65863;49.506;10.400;2023-09-12T10:03:56;8.57;;;5.73;;
9422;SDS011;65863;49.506;10.400;2023-09-12T10:06:44;9.30;;;5.50;;
9422;SDS011;65863;49.506;10.400;2023-09-12T10:09:29;7.57;;;5.85;;
9422;SDS011;65863;49.506;10.400;2023-09-12T10:12:15;13.40;;;5.67;;
9422;SDS011;65863;49.506;10.400;2023-09-12T10:15:00;7.83;;;5.43;;
9422;SDS011;65863;49.506;10.400;2023-09-12T10:17:46;11.53;;;5.53;;
9422;SDS011;65863;49.506;10.400;2023-09-12T10:20:35;9.37;;;5.30;;
9422;SDS011;65863;49.506;10.400;2023-09-12T10:23:37;9.30;;;5.28;;
9422;SDS011;65863;49.506;10.400;2023-09-12T10:26:25;9.53;;;5.80;;
9422;SDS011;65863;49.506;10.400;2023-09-12T10:29:12;12.60;;;5.60;;
9422;SDS011;65863;49.506;10.400;2023-09-12T10:31:57;11.55;;;5.75;;
9422;SDS011;65863;49.506;10.400;2023-09-12T10:34:42;9.20;;;5.45;;
9422;SDS011;65863;49.506;10.400;2023-09-12T10:37:30;8.90;;;4.53;;
9422;SDS011;65863;49.506;10.400;2023-09-12T10:40:17;8.88;;;5.32;;
9422;SDS011;65863;49.506;10.400;2023-09-12T10:43:02;9.57;;;5.65;;
9422;SDS011;65863;49.506;10.400;2023-09-12T10:45:49;10.27;;;5.53;;
9422;SDS011;65863;49.506;10.400;2023-09-12T10:48:36;15.20;;;5.40;;
9422;SDS011;65863;49.506;10.400;2023-09-12T10:51:20;8.30;;;5.18;;
9422;SDS011;65863;49.506;10.400;2023-09-12T10:54:05;10.45;;;5.68;;
9422;SDS011;65863;49.506;10.400;2023-09-12T10:57:02;10.48;;;5.43;;
9422;SDS011;65863;49.506;10.400;2023-09-12T11:02:43;11.68;;;4.90;;
9422;SDS011;65863;49.506;10.400;2023-09-12T11:08:19;7.25;;;4.50;;
9422;SDS011;65863;49.506;10.400;2023-09-12T11:14:16;11.60;;;4.97;;
9422;SDS011;65863;49.506;10.400;2023-09-12T11:19:51;10.93;;;4.60;;
9422;SDS011;65863;49.506;10.400;2023-09-12T11:22:43;7.28;;;4.15;;
9422;SDS011;65863;49.506;10.400;2023-09-12T11:25:28;6.50;;;4.45;;
9422;SDS011;65863;49.506;10.400;2023-09-12T11:28:12;8.52;;;4.82;;
9422;SDS011;65863;49.506;10.400;2023-09-12T11:30:56;6.82;;;4.45;;
9422;SDS011;65863;49.506;10.400;2023-09-12T11:33:40;8.10;;;4.90;;
9422;SDS011;65863;49.506;10.400;2023-09-12T11:36:25;8.05;;;4.53;;
9422;SDS011;65863;49.506;10.400;2023-09-12T11:39:22;7.50;;;4.68;;
9422;SDS011;65863;49.506;10.400;2023-09-12T11:42:10;12.18;;;4.70;;
9422;SDS011;65863;49.506;10.400;2023-09-12T11:44:56;8.00;;;4.43;;
9422;SDS011;65863;49.506;10.400;2023-09-12T11:47:41;9.95;;;4.88;;
9422;SDS011;65863;49.506;10.400;2023-09-12T11:50:32;14.63;;;4.75;;
9422;SDS011;65863;49.506;10.400;2023-09-12T11:53:20;8.65;;;3.90;;
9422;SDS011;65863;49.506;10.400;2023-09-12T11:56:08;8.32;;;4.57;;
9422;SDS011;65863;49.506;10.400;2023-09-12T11:58:53;8.23;;;4.65;;
9422;SDS011;65863;49.506;10.400;2023-09-12T12:01:38;8.90;;;4.60;;
9422;SDS011;65863;49.506;10.400;2023-09-12T12:04:23;6.85;;;4.43;;
9422;SDS011;65863;49.506;10.400;2023-09-12T12:07:09;10.73;;;4.82;;
9422;SDS011;65863;49.506;10.400;2023-09-12T12:09:54;6.47;;;4.18;;
9422;SDS011;65863;49.506;10.400;2023-09-12T12:12:39;10.88;;;4.43;;
9422;SDS011;65863;49.506;10.400;2023-09-12T12:15:23;8.10;;;4.38;;
9422;SDS011;65863;49.506;10.400;2023-09-12T12:18:07;8.20;;;4.68;;
9422;SDS011;65863;49.506;10.400;2023-09-12T12:20:51;5.60;;;3.72;;
9422;SDS011;65863;49.506;10.400;2023-09-12T12:23:35;9.27;;;4.22;;
9422;SDS011;65863;49.506;10.400;2023-09-12T12:26:19;9.68;;;4.60;;
9422;SDS011;65863;49.506;10.400;2023-09-12T12:29:04;9.50;;;4.47;;
9422;SDS011;65863;49.506;10.400;2023-09-12T12:31:48;8.18;;;5.47;;
9422;SDS011;65863;49.506;10.400;2023-09-12T12:34:32;5.47;;;4.40;;
9422;SDS011;65863;49.506;10.400;2023-09-12T12:37:16;5.80;;;4.30;;
9422;SDS011;65863;49.506;10.400;2023-09-12T12:40:01;8.48;;;4.88;;
9422;SDS011;65863;49.506;10.400;2023-09-12T12:42:49;5.95;;;4.47;;
9422;SDS011;65863;49.506;10.400;2023-09-12T12:45:33;4.40;;;4.00;;
9422;SDS011;65863;49.506;10.400;2023-09-12T12:48:17;5.50;;;3.78;;
9422;SDS011;65863;49.506;10.400;2023-09-12T12:54:03;4.95;;;4.18;;
9422;SDS011;65863;49.506;10.400;2023-09-12T12:56:49;8.38;;;4.38;;
9422;SDS011;65863;49.506;10.400;2023-09-12T12:59:33;7.43;;;4.25;;
9422;SDS011;65863;49.506;10.400;2023-09-12T13:02:19;10.48;;;4.18;;
9422;SDS011;65863;49.506;10.400;2023-09-12T13:05:04;7.88;;;4.40;;
9422;SDS011;65863;49.506;10.400;2023-09-12T13:07:51;6.18;;;4.82;;
9422;SDS011;65863;49.506;10.400;2023-09-12T13:10:35;5.68;;;3.70;;
9422;SDS011;65863;49.506;10.400;2023-09-12T13:13:20;7.85;;;3.83;;
9422;SDS011;65863;49.506;10.400;2023-09-12T13:16:04;13.07;;;4.47;;
9422;SDS011;65863;49.506;10.400;2023-09-12T13:18:49;5.88;;;4.15;;
9422;SDS011;65863;49.506;10.400;2023-09-12T13:21:33;6.90;;;3.92;;
9422;SDS011;65863;49.506;10.400;2023-09-12T13:24:18;6.95;;;3.80;;
9422;SDS011;65863;49.506;10.400;2023-09-12T13:27:02;6.80;;;4.30;;
9422;SDS011;65863;49.506;10.400;2023-09-12T13:29:45;4.35;;;3.67;;
9422;SDS011;65863;49.506;10.400;2023-09-12T13:32:31;10.38;;;4.03;;
9422;SDS011;65863;49.506;10.400;2023-09-12T13:35:16;7.70;;;4.30;;
9422;SDS011;65863;49.506;10.400;2023-09-12T13:38:00;5.20;;;4.03;;
9422;SDS011;65863;49.506;10.400;2023-09-12T13:40:45;9.77;;;4.35;;
9422;SDS011;65863;49.506;10.400;2023-09-12T13:43:30;5.53;;;4.00;;
9422;SDS011;65863;49.506;10.400;2023-09-12T13:46:15;6.95;;;4.15;;
9422;SDS011;65863;49.506;10.400;2023-09-12T13:49:00;8.23;;;3.88;;
9422;SDS011;65863;49.506;10.400;2023-09-12T13:51:46;5.82;;;4.00;;
9422;SDS011;65863;49.506;10.400;2023-09-12T13:54:30;8.35;;;4.18;;
9422;SDS011;65863;49.506;10.400;2023-09-12T13:57:15;9.05;;;3.97;;
9422;SDS011;65863;49.506;10.400;2023-09-12T14:00:00;4.68;;;4.13;;
9422;SDS011;65863;49.506;10.400;2023-09-12T14:02:44;6.95;;;4.22;;
9422;SDS011;65863;49.506;10.400;2023-09-12T14:05:28;7.85;;;4.63;;
9422;SDS011;65863;49.506;10.400;2023-09-12T14:08:12;8.63;;;4.00;;
9422;SDS011;65863;49.506;10.400;2023-09-12T14:10:56;7.57;;;3.80;;
9422;SDS011;65863;49.506;10.400;2023-09-12T14:13:40;5.55;;;3.72;;
9422;SDS011;65863;49.506;10.400;2023-09-12T14:16:24;8.13;;;4.03;;
9422;SDS011;65863;49.506;10.400;2023-09-12T14:19:08;5.55;;;3.60;;
9422;SDS011;65863;49.506;10.400;2023-09-12T14:21:54;4.70;;;3.80;;
9422;SDS011;65863;49.506;10.400;2023-09-12T14:24:38;7.35;;;3.50;;
9422;SDS011;65863;49.506;10.400;2023-09-12T14:27:22;6.22;;;3.50;;
9422;SDS011;65863;49.506;10.400;2023-09-12T14:30:06;5.30;;;3.63;;
9422;SDS011;65863;49.506;10.400;2023-09-12T14:32:50;5.28;;;3.65;;
9422;SDS011;65863;49.506;10.400;2023-09-12T14:35:34;8.85;;;3.50;;
9422;SDS011;65863;49.506;10.400;2023-09-12T14:38:20;7.70;;;3.33;;
9422;SDS011;65863;49.506;10.400;2023-09-12T14:41:04;8.38;;;3.72;;
9422;SDS011;65863;49.506;10.400;2023-09-12T14:43:48;5.88;;;3.60;;
9422;SDS011;65863;49.506;10.400;2023-09-12T14:46:33;4.97;;;3.55;;
9422;SDS011;65863;49.506;10.400;2023-09-12T14:49:17;10.40;;;4.00;;
9422;SDS011;65863;49.506;10.400;2023-09-12T14:52:01;9.90;;;3.88;;
9422;SDS011;65863;49.506;10.400;2023-09-12T14:54:45;8.88;;;3.53;;
9422;SDS011;65863;49.506;10.400;2023-09-12T14:57:29;6.07;;;3.58;;
9422;SDS011;65863;49.506;10.400;2023-09-12T15:00:13;5.43;;;4.03;;
9422;SDS011;65863;49.506;10.400;2023-09-12T15:02:57;4.75;;;3.35;;
9422;SDS011;65863;49.506;10.400;2023-09-12T15:05:41;6.40;;;3.65;;
9422;SDS011;65863;49.506;10.400;2023-09-12T15:08:25;9.60;;;3.33;;
9422;SDS011;65863;49.506;10.400;2023-09-12T15:11:09;5.35;;;3.88;;
9422;SDS011;65863;49.506;10.400;2023-09-12T15:13:54;13.55;;;3.95;;
9422;SDS011;65863;49.506;10.400;2023-09-12T15:16:38;11.07;;;3.90;;
9422;SDS011;65863;49.506;10.400;2023-09-12T15:19:22;10.90;;;4.05;;
9422;SDS011;65863;49.506;10.400;2023-09-12T15:22:06;5.50;;;3.80;;
9422;SDS011;65863;49.506;10.400;2023-09-12T15:24:50;6.45;;;3.97;;
9422;SDS011;65863;49.506;10.400;2023-09-12T15:27:34;9.35;;;3.85;;
9422;SDS011;65863;49.506;10.400;2023-09-12T15:30:19;4.82;;;4.10;;
9422;SDS011;65863;49.506;10.400;2023-09-12T15:33:03;6.70;;;4.00;;
9422;SDS011;65863;49.506;10.400;2023-09-12T15:35:47;5.30;;;3.80;;
9422;SDS011;65863;49.506;10.400;2023-09-12T15:38:31;4.80;;;3.92;;
9422;SDS011;65863;49.506;10.400;2023-09-12T15:41:15;5.75;;;3.65;;
9422;SDS011;65863;49.506;10.400;2023-09-12T15:43:59;10.43;;;4.00;;
9422;SDS011;65863;49.506;10.400;2023-09-12T15:46:44;5.85;;;4.10;;
9422;SDS011;65863;49.506;10.400;2023-09-12T15:49:28;7.53;;;4.22;;
9422;SDS011;65863;49.506;10.400;2023-09-12T15:52:13;11.27;;;3.72;;
9422;SDS011;65863;49.506;10.400;2023-09-12T15:54:58;6.25;;;3.70;;
9422;SDS011;65863;49.506;10.400;2023-09-12T15:57:42;7.68;;;3.45;;
9422;SDS011;65863;49.506;10.400;2023-09-12T16:00:26;6.60;;;4.13;;
9422;SDS011;65863;49.506;10.400;2023-09-12T16:03:10;5.57;;;3.67;;
9422;SDS011;65863;49.506;10.400;2023-09-12T16:05:54;6.15;;;3.78;;
9422;SDS011;65863;49.506;10.400;2023-09-12T16:08:38;10.85;;;3.92;;
9422;SDS011;65863;49.506;10.400;2023-09-12T16:11:22;5.65;;;4.03;;
9422;SDS011;65863;49.506;10.400;2023-09-12T16:14:06;8.52;;;4.55;;
9422;SDS011;65863;49.506;10.400;2023-09-12T16:16:50;7.85;;;4.20;;
9422;SDS011;65863;49.506;10.400;2023-09-12T16:19:34;7.28;;;4.30;;
9422;SDS011;65863;49.506;10.400;2023-09-12T16:22:18;5.97;;;4.10;;
9422;SDS011;65863;49.506;10.400;2023-09-12T16:25:02;5.60;;;3.88;;
9422;SDS011;65863;49.506;10.400;2023-09-12T16:27:46;4.50;;;3.88;;
9422;SDS011;65863;49.506;10.400;2023-09-12T16:30:30;7.43;;;4.00;;
9422;SDS011;65863;49.506;10.400;2023-09-12T16:33:14;9.30;;;4.00;;
9422;SDS011;65863;49.506;10.400;2023-09-12T16:35:59;7.47;;;4.15;;
9422;SDS011;65863;49.506;10.400;2023-09-12T16:38:43;7.72;;;4.50;;
9422;SDS011;65863;49.506;10.400;2023-09-12T16:41:27;8.07;;;4.72;;
9422;SDS011;65863;49.506;10.400;2023-09-12T16:44:11;4.45;;;3.70;;
9422;SDS011;65863;49.506;10.400;2023-09-12T16:46:55;4.97;;;3.85;;